Fort William, United Kingdom
Current Conditions -  °F | °C
As of 10:50 PM on Friday 19 Dec 2014 (Local Time) from EGPE Reporting Station
Rain Showers Rain Showers  
Wind Chill: 29°   Ceiling: Unl
Heat Index: 39°   Visibility: 6mi
Dew Point: 36°   Wind: 22mph
Humidity: 87%   Direction: 260°W
Pressure: 29.59"   Gusts: NA
Location:  56.82°N, 5.11°W
Report Text: EGPE 192250Z 26019KT 9999 VCSH FEW015CB SCT030 04/02 Q1002
Loading
Personal Weather Stations






























Interactive Weather Map New forecast layout! Learn more

10-Day Weather Forecast

Advertisements
Track Severe Weather on mobile